Axel, Colorado
Current Conditions -  °F | °C
As of 11:53 AM on Friday 24 Oct 2014 (Local Time) from KEEO Reporting Station
Clear Clear  
Wind Chill: 69°   Ceiling: Unl
Heat Index: 69°   Visibility: 10mi
Dew Point: 33°   Wind: 10mph
Humidity: 26%   Direction: 180°S
Pressure: 30.33"   Gusts: 18mph
Location:  40.0347°N, 107.628°W
Report Text: KEEO 241753Z AUTO 18009G16KT 10SM CLR 21/01 A3033 RMK AO2 SLP206 T02060006 10206 20011 58005
Loading
Personal Weather Stations






























Interactive Weather Map
Tropical Storm Tracking
New forecast layout! Learn more

10-Day Weather Forecast

Advertisements
Track Severe Weather on mobile